createdAt,value
2019-05-23T00:00:26.585Z,426.46
2019-05-23T00:01:26.577Z,428.33
2019-05-23T00:02:26.577Z,426.67
2019-05-23T00:03:26.555Z,427.47
2019-05-23T00:04:26.568Z,426.38
2019-05-23T00:05:26.535Z,426.89
2019-05-23T00:06:26.626Z,425.01
2019-05-23T00:07:26.503Z,426.27
2019-05-23T00:08:26.504Z,425.62
2019-05-23T00:09:26.488Z,426.65
2019-05-23T00:10:26.521Z,427.45
2019-05-23T00:11:26.466Z,426.07
2019-05-23T00:12:26.451Z,425.77
2019-05-23T00:13:26.441Z,427.08
2019-05-23T00:14:26.435Z,426.86
2019-05-23T00:15:26.417Z,426.24
2019-05-23T00:16:26.433Z,427.19
2019-05-23T00:17:26.393Z,426.35
2019-05-23T00:18:26.384Z,425.92
2019-05-23T00:19:26.375Z,426.55
2019-05-23T00:20:26.363Z,427.71
2019-05-23T00:21:26.357Z,428.13
2019-05-23T00:22:26.539Z,428.15
2019-05-23T00:23:26.327Z,425.19
2019-05-23T00:24:26.329Z,426.35
2019-05-23T00:25:26.305Z,426.44
2019-05-23T00:26:26.296Z,425.79
2019-05-23T00:27:26.279Z,427.53
2019-05-23T00:28:26.268Z,428.63
2019-05-23T00:29:26.263Z,427.23
2019-05-23T00:30:26.265Z,427.52
2019-05-23T00:31:26.238Z,427.25
2019-05-23T00:32:26.220Z,426.52
2019-05-23T00:33:26.207Z,427.94
2019-05-23T00:34:26.263Z,427.52
2019-05-23T00:35:26.190Z,427.63
2019-05-23T00:36:26.202Z,426.02
2019-05-23T00:37:26.170Z,426.31
2019-05-23T00:38:26.156Z,428.33
2019-05-23T00:39:26.149Z,426.49
2019-05-23T00:40:26.131Z,427.54
2019-05-23T00:41:26.127Z,427.98
2019-05-23T00:42:26.132Z,425.37
2019-05-23T00:43:26.102Z,426.75
2019-05-23T00:44:26.086Z,425.37
2019-05-23T00:45:26.116Z,426.84
2019-05-23T00:46:26.087Z,426.82
2019-05-23T00:47:26.060Z,426.45
2019-05-23T00:48:26.044Z,427.68
2019-05-23T00:49:26.076Z,427.93
2019-05-23T00:50:26.023Z,427.75
2019-05-23T00:51:26.011Z,427.48
2019-05-23T00:52:25.993Z,428.64
2019-05-23T00:53:25.989Z,427.87
2019-05-23T00:54:25.982Z,426.61
2019-05-23T00:55:25.982Z,426.11
2019-05-23T00:56:25.948Z,425.56
2019-05-23T00:57:25.942Z,425.86
2019-05-23T00:58:25.942Z,426.95
2019-05-23T00:59:27.746Z,427.03
2019-05-23T01:00:25.924Z,427.12
2019-05-23T01:01:25.894Z,425.27
2019-05-23T01:02:25.885Z,428.08
2019-05-23T01:03:25.866Z,426.69
2019-05-23T01:04:25.856Z,426.19
2019-05-23T01:05:25.852Z,426.81
2019-05-23T01:06:25.860Z,428.53
2019-05-23T01:07:25.828Z,428.16
2019-05-23T01:08:25.810Z,427.43
2019-05-23T01:09:25.795Z,426.47
2019-05-23T01:10:25.792Z,427.94
2019-05-23T01:11:25.784Z,427.19
2019-05-23T01:12:25.838Z,428.44
2019-05-23T01:13:25.769Z,427.01
2019-05-23T01:14:25.749Z,426.08
2019-05-23T01:15:25.730Z,427.32
2019-05-23T01:16:25.718Z,427.25
2019-05-23T01:17:25.714Z,427.51
2019-05-23T01:18:25.704Z,427.22
2019-05-23T01:19:25.720Z,425.80
2019-05-23T01:20:25.681Z,426.78
2019-05-23T01:21:25.670Z,425.89
2019-05-23T01:22:25.654Z,427.25
2019-05-23T01:23:25.652Z,427.96
2019-05-23T01:24:25.628Z,427.03
2019-05-23T01:25:25.640Z,427.54
2019-05-23T01:26:25.607Z,426.45
2019-05-23T01:27:25.596Z,427.23
2019-05-23T01:28:25.588Z,427.87
2019-05-23T01:29:25.594Z,426.62
2019-05-23T01:30:25.566Z,427.39
2019-05-23T01:31:25.575Z,426.53
2019-05-23T01:32:25.542Z,426.64
2019-05-23T01:33:25.529Z,426.41
2019-05-23T01:34:25.529Z,427.17
2019-05-23T01:35:25.501Z,426.21
2019-05-23T01:36:25.497Z,425.82
2019-05-23T01:37:25.494Z,427.62
2019-05-23T01:38:25.497Z,425.87
2019-05-23T01:39:25.631Z,425.26
2019-05-23T01:40:25.457Z,425.64
2019-05-23T01:41:25.441Z,424.42
2019-05-23T01:42:25.433Z,426.02
2019-05-23T01:43:25.419Z,427.00
2019-05-23T01:44:25.405Z,426.85
2019-05-23T01:45:25.419Z,426.33
2019-05-23T01:46:25.383Z,425.83
2019-05-23T01:47:25.379Z,427.01
2019-05-23T01:48:25.369Z,427.69
2019-05-23T01:49:25.351Z,426.42
2019-05-23T01:50:25.350Z,426.74
2019-05-23T01:51:25.331Z,426.76
2019-05-23T01:52:25.366Z,425.72
2019-05-23T01:53:25.305Z,425.94
2019-05-23T01:54:25.297Z,425.66
2019-05-23T01:55:25.291Z,426.02
2019-05-23T01:56:25.277Z,426.52
2019-05-23T01:57:25.270Z,426.77
2019-05-23T01:58:25.249Z,427.32
2019-05-23T01:59:25.263Z,425.64
2019-05-23T02:00:25.229Z,426.07
2019-05-23T02:01:25.225Z,426.24
2019-05-23T02:02:25.221Z,426.88
2019-05-23T02:03:25.204Z,425.72
2019-05-23T02:04:25.212Z,425.98
2019-05-23T02:05:25.206Z,427.67
2019-05-23T02:06:25.186Z,425.99
2019-05-23T02:07:25.148Z,425.75
2019-05-23T02:08:25.142Z,425.05
2019-05-23T02:09:25.131Z,425.83
2019-05-23T02:10:25.119Z,427.14
2019-05-23T02:11:25.107Z,426.04
2019-05-23T02:12:25.117Z,425.64
2019-05-23T02:13:25.089Z,426.71
2019-05-23T02:14:25.132Z,426.26
2019-05-23T02:15:25.068Z,425.45
2019-05-23T02:16:25.055Z,425.95
2019-05-23T02:17:25.048Z,425.03
2019-05-23T02:18:25.032Z,425.93
2019-05-23T02:19:25.020Z,426.40
2019-05-23T02:20:25.051Z,426.54
2019-05-23T02:21:24.994Z,425.81
2019-05-23T02:22:24.989Z,425.51
2019-05-23T02:23:24.975Z,426.58
2019-05-23T02:24:24.962Z,424.92
2019-05-23T02:25:24.954Z,426.05
2019-05-23T02:26:24.952Z,426.24
2019-05-23T02:27:24.935Z,426.09
2019-05-23T02:28:24.926Z,424.70
2019-05-23T02:29:24.906Z,425.90
2019-05-23T02:30:34.747Z,424.17
2019-05-23T02:31:25.906Z,425.11
2019-05-23T02:32:24.882Z,424.84
2019-05-23T02:33:24.870Z,423.03
2019-05-23T02:34:24.878Z,424.60
2019-05-23T02:35:24.862Z,425.16
2019-05-23T02:36:24.834Z,424.92
2019-05-23T02:37:24.832Z,425.84
2019-05-23T02:38:24.828Z,423.86
2019-05-23T02:39:24.802Z,425.72
2019-05-23T02:40:24.808Z,424.58
2019-05-23T02:41:24.786Z,423.61
2019-05-23T02:42:24.770Z,426.10
2019-05-23T02:43:24.759Z,423.02
2019-05-23T02:44:24.768Z,424.87
2019-05-23T02:45:24.735Z,425.13
2019-05-23T02:46:24.743Z,426.00
2019-05-23T02:47:24.722Z,425.23
2019-05-23T02:48:24.696Z,424.98
2019-05-23T02:49:24.695Z,423.81
2019-05-23T02:50:24.678Z,424.31
2019-05-23T02:51:24.669Z,425.30
2019-05-23T02:52:24.676Z,425.44
2019-05-23T02:53:24.643Z,423.35
2019-05-23T02:54:24.636Z,425.01
2019-05-23T02:55:24.633Z,425.17
2019-05-23T02:56:24.614Z,425.41
2019-05-23T02:57:24.602Z,425.64
2019-05-23T02:58:24.612Z,425.06
2019-05-23T02:59:24.585Z,425.29
2019-05-23T03:00:24.570Z,425.33
2019-05-23T03:01:24.564Z,425.61
2019-05-23T03:02:24.549Z,425.13
2019-05-23T03:03:24.535Z,425.79
2019-05-23T03:04:24.548Z,424.83
2019-05-23T03:05:24.555Z,425.92
2019-05-23T03:06:24.499Z,425.92
2019-05-23T03:07:24.498Z,426.22
2019-05-23T03:08:24.482Z,426.48
2019-05-23T03:09:24.468Z,425.13
2019-05-23T03:10:24.454Z,426.55
2019-05-23T03:11:24.469Z,426.77
2019-05-23T03:12:25.417Z,426.69
2019-05-23T03:13:24.433Z,425.99
2019-05-23T03:14:24.413Z,425.10
2019-05-23T03:15:24.426Z,423.62
2019-05-23T03:16:24.389Z,423.86
2019-05-23T03:17:24.377Z,424.43
2019-05-23T03:18:24.382Z,424.73
2019-05-23T03:19:24.372Z,426.69
2019-05-23T03:20:24.347Z,426.09
2019-05-23T03:21:24.351Z,423.52
2019-05-23T03:22:24.352Z,424.15
2019-05-23T03:23:24.317Z,425.57
2019-05-23T03:24:24.309Z,424.54
2019-05-23T03:25:24.291Z,424.05
2019-05-23T03:26:24.279Z,424.96
2019-05-23T03:27:24.275Z,425.35
2019-05-23T03:28:24.279Z,426.15
2019-05-23T03:29:24.263Z,425.12
2019-05-23T03:30:24.254Z,425.40
2019-05-23T03:31:30.749Z,426.12
2019-05-23T03:32:25.230Z,424.93
2019-05-23T03:33:24.223Z,424.19
2019-05-23T03:34:24.201Z,425.30
2019-05-23T03:35:24.210Z,424.21
2019-05-23T03:36:24.334Z,426.29
2019-05-23T03:37:24.160Z,424.34
2019-05-23T03:38:24.146Z,425.88
2019-05-23T03:39:24.137Z,425.88
2019-05-23T03:40:24.322Z,425.22
2019-05-23T03:41:24.141Z,423.69
2019-05-23T03:42:24.120Z,425.76
2019-05-23T03:43:24.189Z,426.25
2019-05-23T03:44:24.084Z,425.13
2019-05-23T03:45:24.074Z,424.31
2019-05-23T03:46:24.065Z,425.02
2019-05-23T03:47:24.058Z,424.66
2019-05-23T03:48:24.050Z,425.63
2019-05-23T03:49:24.027Z,424.23
2019-05-23T03:50:24.034Z,424.99
2019-05-23T03:51:24.006Z,425.44
2019-05-23T03:52:23.997Z,424.51
2019-05-23T03:53:23.996Z,424.75
2019-05-23T03:54:23.979Z,425.22
2019-05-23T03:55:24.059Z,424.78
2019-05-23T03:56:23.946Z,424.80
2019-05-23T03:57:25.828Z,423.94
2019-05-23T03:58:23.926Z,425.38
2019-05-23T03:59:23.944Z,424.91
2019-05-23T04:00:23.908Z,425.45
2019-05-23T04:01:23.899Z,425.16
2019-05-23T04:02:23.891Z,425.55
2019-05-23T04:03:23.887Z,423.13
2019-05-23T04:04:23.914Z,422.91
2019-05-23T04:05:23.872Z,423.83
2019-05-23T04:06:23.840Z,424.88
2019-05-23T04:07:23.833Z,423.94
2019-05-23T04:08:23.824Z,422.94
2019-05-23T04:09:23.811Z,424.78
2019-05-23T04:10:23.819Z,425.52
2019-05-23T04:11:23.785Z,424.44
2019-05-23T04:12:23.905Z,423.73
2019-05-23T04:13:23.801Z,424.71
2019-05-23T04:14:23.753Z,424.04
2019-05-23T04:15:23.748Z,424.76
2019-05-23T04:16:23.735Z,422.42
2019-05-23T04:17:23.729Z,423.08
2019-05-23T04:18:23.716Z,424.75
2019-05-23T04:19:23.716Z,424.40
2019-05-23T04:20:23.689Z,425.64
2019-05-23T04:21:23.685Z,423.33
2019-05-23T04:22:23.677Z,423.06
2019-05-23T04:23:23.657Z,422.29
2019-05-23T04:24:23.640Z,423.39
2019-05-23T04:25:23.630Z,424.00
2019-05-23T04:26:23.627Z,424.65
2019-05-23T04:27:23.609Z,424.49
2019-05-23T04:28:23.625Z,424.10
2019-05-23T04:29:23.650Z,424.44
2019-05-23T04:30:23.575Z,425.09
2019-05-23T04:31:23.563Z,423.82
2019-05-23T04:32:23.558Z,424.60
2019-05-23T04:33:23.540Z,425.29
2019-05-23T04:34:23.536Z,425.06
2019-05-23T04:35:23.538Z,425.01
2019-05-23T04:36:23.613Z,425.11
2019-05-23T04:37:23.499Z,426.53
2019-05-23T04:38:23.515Z,427.04
2019-05-23T04:39:23.507Z,427.06
2019-05-23T04:40:23.480Z,423.88
2019-05-23T04:41:23.479Z,425.25
2019-05-23T04:42:23.442Z,425.06
2019-05-23T04:43:23.441Z,425.96
2019-05-23T04:44:23.428Z,426.93
2019-05-23T04:45:23.407Z,425.83
2019-05-23T04:46:23.389Z,426.57
2019-05-23T04:47:23.406Z,425.17
2019-05-23T04:48:23.396Z,426.49
2019-05-23T04:49:23.369Z,425.72
2019-05-23T04:50:23.353Z,426.18
2019-05-23T04:51:23.349Z,426.24
2019-05-23T04:52:23.329Z,425.35
2019-05-23T04:53:23.327Z,425.75
2019-05-23T04:54:23.325Z,424.41
2019-05-23T04:55:23.305Z,425.19
2019-05-23T04:56:23.285Z,425.78
2019-05-23T04:57:23.356Z,424.95
2019-05-23T04:58:23.263Z,425.12
2019-05-23T04:59:23.259Z,424.22
2019-05-23T05:00:23.256Z,424.33
2019-05-23T05:01:23.229Z,424.60
2019-05-23T05:02:26.736Z,423.84
2019-05-23T05:03:23.225Z,422.98
2019-05-23T05:04:23.230Z,422.76
2019-05-23T05:05:23.201Z,422.37
2019-05-23T05:06:23.174Z,421.60
2019-05-23T05:07:23.171Z,422.05
2019-05-23T05:08:23.165Z,421.69
2019-05-23T05:09:23.161Z,420.08
2019-05-23T05:10:23.137Z,420.85
2019-05-23T05:11:23.120Z,420.90
2019-05-23T05:12:23.124Z,420.73
2019-05-23T05:13:23.091Z,420.52
2019-05-23T05:14:23.085Z,419.79
2019-05-23T05:15:23.091Z,420.49
2019-05-23T05:16:23.064Z,419.73
2019-05-23T05:17:23.118Z,419.27
2019-05-23T05:18:23.036Z,419.41
2019-05-23T05:19:23.050Z,418.62
2019-05-23T05:20:23.968Z,418.89
2019-05-23T05:21:23.010Z,419.08
2019-05-23T05:22:22.993Z,419.14
2019-05-23T05:23:22.989Z,420.16
2019-05-23T05:24:22.975Z,419.16
2019-05-23T05:25:22.962Z,419.30
2019-05-23T05:26:22.953Z,419.27
2019-05-23T05:27:22.939Z,418.93
2019-05-23T05:28:22.926Z,418.51
2019-05-23T05:29:22.914Z,418.03
2019-05-23T05:30:22.910Z,418.91
2019-05-23T05:31:22.936Z,419.51
2019-05-23T05:32:22.902Z,419.39
2019-05-23T05:33:22.874Z,419.04
2019-05-23T05:34:22.889Z,419.98
2019-05-23T05:35:22.943Z,418.39
2019-05-23T05:36:22.835Z,418.77
2019-05-23T05:37:22.930Z,418.75
2019-05-23T05:38:22.809Z,418.45
2019-05-23T05:39:22.797Z,418.80
2019-05-23T05:40:22.789Z,418.75
2019-05-23T05:41:22.820Z,417.73
2019-05-23T05:42:22.791Z,418.66
2019-05-23T05:43:22.758Z,418.89
2019-05-23T05:44:22.754Z,419.68
2019-05-23T05:45:22.735Z,419.54
2019-05-23T05:46:22.732Z,421.13
2019-05-23T05:47:22.717Z,420.57
2019-05-23T05:48:22.723Z,420.07
2019-05-23T05:49:22.701Z,420.04
2019-05-23T05:50:22.673Z,420.95
2019-05-23T05:51:22.667Z,421.03
2019-05-23T05:52:22.654Z,420.94
2019-05-23T05:53:22.640Z,421.21
2019-05-23T05:54:22.651Z,422.17
2019-05-23T05:55:22.641Z,422.52
2019-05-23T05:56:22.620Z,423.56
2019-05-23T05:57:22.654Z,422.63
2019-05-23T05:58:22.691Z,423.20
2019-05-23T05:59:22.589Z,422.70
2019-05-23T06:00:22.575Z,423.08
2019-05-23T06:01:33.460Z,423.08
2019-05-23T06:02:23.591Z,423.33
2019-05-23T06:03:22.561Z,423.19
2019-05-23T06:04:22.522Z,423.05
2019-05-23T06:05:22.512Z,424.20
2019-05-23T06:06:22.498Z,423.27
2019-05-23T06:07:22.503Z,423.87
2019-05-23T06:08:22.488Z,424.67
2019-05-23T06:09:22.457Z,424.01
2019-05-23T06:10:22.445Z,424.88
2019-05-23T06:11:22.442Z,425.72
2019-05-23T06:12:22.435Z,423.52
2019-05-23T06:13:22.433Z,424.48
2019-05-23T06:14:22.405Z,424.11
2019-05-23T06:15:22.393Z,423.40
2019-05-23T06:16:22.394Z,423.30
2019-05-23T06:17:22.371Z,424.77
2019-05-23T06:18:22.366Z,424.12
2019-05-23T06:19:22.351Z,424.90
2019-05-23T06:20:22.337Z,425.64
2019-05-23T06:21:22.346Z,423.66
2019-05-23T06:22:22.314Z,423.92
2019-05-23T06:23:22.317Z,425.48
2019-05-23T06:24:38.934Z,425.10
2019-05-23T06:25:23.290Z,424.05
2019-05-23T06:26:22.298Z,425.21
2019-05-23T06:27:22.257Z,425.04
2019-05-23T06:28:22.307Z,424.37
2019-05-23T06:29:22.703Z,424.40
2019-05-23T06:30:22.226Z,424.98
2019-05-23T06:31:22.235Z,424.62
2019-05-23T06:32:22.225Z,425.58
2019-05-23T06:33:24.066Z,425.44
2019-05-23T06:34:22.296Z,423.60
2019-05-23T06:35:22.179Z,424.84
2019-05-23T06:36:22.160Z,425.43
2019-05-23T06:37:22.322Z,425.84
2019-05-23T06:38:22.163Z,425.69
2019-05-23T06:39:22.130Z,426.97
2019-05-23T06:40:22.129Z,426.42
2019-05-23T06:41:22.135Z,426.06
2019-05-23T06:42:22.094Z,424.43
2019-05-23T06:43:22.093Z,425.85
2019-05-23T06:44:22.072Z,426.08
2019-05-23T06:45:22.057Z,425.20
2019-05-23T06:46:22.070Z,424.24
2019-05-23T06:47:22.047Z,422.74
2019-05-23T06:48:22.023Z,426.32
2019-05-23T06:49:22.014Z,425.70
2019-05-23T06:50:22.008Z,425.05
2019-05-23T06:51:22.025Z,425.86
2019-05-23T06:52:21.990Z,425.64
2019-05-23T06:53:22.001Z,427.05
2019-05-23T06:54:21.970Z,427.04
2019-05-23T06:55:21.946Z,424.73
2019-05-23T06:56:21.937Z,426.70
2019-05-23T06:57:21.931Z,425.27
2019-05-23T06:58:22.852Z,425.76
2019-05-23T06:59:21.924Z,425.74
2019-05-23T07:00:21.891Z,426.71
2019-05-23T07:01:21.890Z,427.02
2019-05-23T07:02:21.870Z,426.48
2019-05-23T07:03:21.872Z,427.33
2019-05-23T07:04:21.850Z,427.73
2019-05-23T07:05:21.882Z,426.22
2019-05-23T07:06:21.851Z,427.06
2019-05-23T07:07:21.812Z,427.00
2019-05-23T07:08:25.178Z,426.04
2019-05-23T07:09:21.799Z,426.22
2019-05-23T07:10:21.795Z,426.92
2019-05-23T07:11:21.780Z,426.18
2019-05-23T07:12:21.761Z,426.04
2019-05-23T07:13:21.747Z,426.41
2019-05-23T07:14:21.756Z,425.96
2019-05-23T07:15:21.729Z,426.59
2019-05-23T07:16:21.710Z,425.83
2019-05-23T07:17:21.723Z,426.91
2019-05-23T07:18:21.700Z,424.45
2019-05-23T07:19:21.676Z,427.50
2019-05-23T07:20:21.675Z,426.45
2019-05-23T07:21:21.661Z,427.03
2019-05-23T07:22:21.648Z,426.56
2019-05-23T07:23:21.661Z,427.61
2019-05-23T07:24:21.625Z,427.25
2019-05-23T07:25:21.638Z,427.29
2019-05-23T07:26:21.605Z,426.01
2019-05-23T07:27:21.600Z,425.90
2019-05-23T07:28:21.586Z,427.11
2019-05-23T07:29:21.572Z,427.70
2019-05-23T07:30:21.583Z,427.26
2019-05-23T07:31:21.563Z,427.27
2019-05-23T07:32:21.543Z,427.10
2019-05-23T07:33:21.543Z,426.72
2019-05-23T07:34:21.519Z,426.38
2019-05-23T07:35:21.510Z,426.76
2019-05-23T07:36:21.503Z,425.85
2019-05-23T07:37:21.479Z,426.95
2019-05-23T07:38:21.493Z,426.02
2019-05-23T07:39:21.458Z,426.93
2019-05-23T07:40:21.455Z,427.01
2019-05-23T07:41:21.536Z,426.45
2019-05-23T07:42:21.425Z,427.43
2019-05-23T07:43:21.546Z,426.07
2019-05-23T07:44:21.427Z,425.47
2019-05-23T07:45:21.561Z,426.99
2019-05-23T07:46:21.382Z,427.56
2019-05-23T07:47:21.374Z,427.54
2019-05-23T07:48:21.380Z,425.91
2019-05-23T07:49:21.348Z,424.62
2019-05-23T07:50:21.373Z,426.15
2019-05-23T07:51:21.343Z,426.20
2019-05-23T07:52:21.311Z,424.28
2019-05-23T07:53:21.301Z,423.60
2019-05-23T07:54:21.296Z,423.86
2019-05-23T07:55:21.281Z,424.02
2019-05-23T07:56:21.290Z,426.81
2019-05-23T07:57:21.252Z,425.88
2019-05-23T07:58:21.262Z,426.37
2019-05-23T07:59:21.236Z,425.12
2019-05-23T08:00:21.228Z,424.41
2019-05-23T08:01:21.212Z,425.08
2019-05-23T08:02:25.521Z,426.40
2019-05-23T08:03:21.223Z,425.04
2019-05-23T08:04:22.465Z,425.62
2019-05-23T08:05:21.173Z,425.29
2019-05-23T08:06:21.166Z,426.46
2019-05-23T08:07:21.142Z,425.71
2019-05-23T08:08:21.126Z,425.81
2019-05-23T08:09:21.145Z,424.36
2019-05-23T08:10:33.158Z,426.18
2019-05-23T08:11:22.096Z,425.79
2019-05-23T08:12:21.085Z,425.69
2019-05-23T08:13:21.084Z,424.91
2019-05-23T08:14:21.066Z,425.94
2019-05-23T08:15:21.051Z,426.96
2019-05-23T08:16:21.050Z,426.20
2019-05-23T08:17:21.047Z,425.20
2019-05-23T08:18:21.080Z,425.52
2019-05-23T08:19:21.017Z,424.90
2019-05-23T08:20:20.987Z,425.75
2019-05-23T08:21:20.992Z,425.19
2019-05-23T08:22:20.967Z,424.96
2019-05-23T08:23:20.958Z,424.67
2019-05-23T08:24:20.952Z,425.02
2019-05-23T08:25:20.944Z,426.00
2019-05-23T08:26:20.945Z,425.52
2019-05-23T08:27:20.912Z,424.09
2019-05-23T08:28:20.906Z,425.54
2019-05-23T08:29:27.991Z,425.35
2019-05-23T08:30:21.879Z,425.21
2019-05-23T08:31:20.864Z,424.68
2019-05-23T08:32:20.858Z,424.78
2019-05-23T08:33:20.849Z,425.32
2019-05-23T08:34:37.846Z,424.43
2019-05-23T08:35:21.827Z,422.75
2019-05-23T08:36:20.818Z,423.33
2019-05-23T08:37:20.802Z,425.09
2019-05-23T08:38:20.788Z,426.49
2019-05-23T08:39:20.781Z,425.75
2019-05-23T08:40:20.768Z,422.88
2019-05-23T08:41:20.771Z,424.94
2019-05-23T08:42:20.740Z,424.79
2019-05-23T08:43:20.735Z,424.77
2019-05-23T08:44:20.734Z,424.69
2019-05-23T08:45:20.705Z,425.32
2019-05-23T08:46:20.700Z,423.93
2019-05-23T08:47:20.690Z,425.30
2019-05-23T08:48:20.694Z,424.48
2019-05-23T08:49:20.678Z,424.37
2019-05-23T08:50:20.678Z,425.10
2019-05-23T08:51:20.662Z,425.00
2019-05-23T08:52:20.639Z,423.90
2019-05-23T08:53:20.613Z,425.88
2019-05-23T08:54:20.606Z,425.15
2019-05-23T08:55:20.611Z,424.72
2019-05-23T08:56:20.583Z,425.54
2019-05-23T08:57:20.598Z,425.47
2019-05-23T08:58:20.583Z,426.33
2019-05-23T08:59:20.549Z,425.88
2019-05-23T09:00:20.597Z,424.57
2019-05-23T09:01:20.537Z,426.28
2019-05-23T09:02:20.511Z,424.62
2019-05-23T09:03:20.497Z,424.49
2019-05-23T09:04:20.511Z,425.17
2019-05-23T09:05:20.495Z,424.49
2019-05-23T09:06:20.471Z,424.40
2019-05-23T09:07:20.501Z,424.97
2019-05-23T09:08:20.448Z,426.20
2019-05-23T09:09:29.738Z,425.94
2019-05-23T09:10:21.426Z,425.84
2019-05-23T09:11:20.411Z,424.94
2019-05-23T09:12:20.407Z,424.71
2019-05-23T09:13:20.409Z,424.07
2019-05-23T09:14:20.394Z,424.52
2019-05-23T09:15:20.377Z,426.47
2019-05-23T09:16:20.351Z,425.32
2019-05-23T09:17:20.344Z,425.06
2019-05-23T09:18:20.337Z,425.59
2019-05-23T09:19:20.351Z,424.08
2019-05-23T09:20:20.305Z,424.99
2019-05-23T09:21:20.300Z,426.30
2019-05-23T09:22:20.289Z,424.98
2019-05-23T09:23:20.291Z,425.87
2019-05-23T09:24:20.264Z,423.81
2019-05-23T09:25:20.248Z,426.23
2019-05-23T09:26:20.241Z,423.58
2019-05-23T09:27:20.231Z,424.19
2019-05-23T09:28:20.217Z,425.04
2019-05-23T09:29:20.249Z,424.42
2019-05-23T09:30:20.197Z,426.62
2019-05-23T09:31:20.178Z,424.76
2019-05-23T09:32:20.184Z,425.78
2019-05-23T09:33:20.170Z,425.60
2019-05-23T09:34:20.149Z,424.41
2019-05-23T09:35:22.178Z,425.40
2019-05-23T09:36:20.126Z,425.70
2019-05-23T09:37:20.161Z,425.18
2019-05-23T09:38:20.116Z,423.71
2019-05-23T09:39:20.115Z,423.94
2019-05-23T09:40:20.100Z,424.76
2019-05-23T09:41:20.069Z,423.50
2019-05-23T09:42:20.057Z,424.48
2019-05-23T09:43:20.047Z,424.60
2019-05-23T09:44:20.053Z,425.30
2019-05-23T09:45:20.026Z,427.20
2019-05-23T09:46:20.013Z,425.74
2019-05-23T09:47:20.113Z,424.95
2019-05-23T09:48:19.987Z,425.74
2019-05-23T09:49:19.982Z,424.28
2019-05-23T09:50:20.010Z,426.05
2019-05-23T09:51:19.982Z,424.15
2019-05-23T09:52:19.943Z,424.73
2019-05-23T09:53:19.933Z,423.67
2019-05-23T09:54:19.920Z,424.89
2019-05-23T09:55:19.914Z,422.90
2019-05-23T09:56:19.896Z,423.21
2019-05-23T09:57:19.921Z,424.53
2019-05-23T09:58:19.872Z,424.39
2019-05-23T09:59:19.865Z,424.73
2019-05-23T10:00:19.853Z,424.94
2019-05-23T10:01:19.968Z,425.42
2019-05-23T10:02:19.852Z,425.98
2019-05-23T10:03:19.817Z,425.97
2019-05-23T10:04:19.835Z,426.06
2019-05-23T10:05:40.194Z,425.98
2019-05-23T10:06:20.783Z,425.05
2019-05-23T10:07:19.780Z,425.36
2019-05-23T10:08:19.764Z,424.72
2019-05-23T10:09:19.756Z,424.93
2019-05-23T10:10:19.734Z,424.73
2019-05-23T10:11:19.729Z,424.99
2019-05-23T10:12:22.446Z,426.34
2019-05-23T10:13:36.048Z,425.76
2019-05-23T10:14:20.703Z,425.78
2019-05-23T10:15:19.684Z,426.67
2019-05-23T10:16:19.664Z,425.92
2019-05-23T10:17:19.686Z,426.29
2019-05-23T10:18:19.655Z,425.95
2019-05-23T10:19:19.634Z,424.39
2019-05-23T10:20:19.623Z,425.47
2019-05-23T10:21:19.615Z,425.99
2019-05-23T10:22:19.599Z,425.65
2019-05-23T10:23:19.597Z,425.84
2019-05-23T10:24:19.628Z,425.78
2019-05-23T10:25:19.599Z,426.41
2019-05-23T10:26:19.557Z,425.36
2019-05-23T10:27:19.546Z,426.65
2019-05-23T10:28:19.532Z,425.61
2019-05-23T10:29:19.523Z,424.73
2019-05-23T10:30:19.509Z,424.26
2019-05-23T10:31:19.495Z,426.74
2019-05-23T10:32:19.504Z,426.10
2019-05-23T10:33:19.499Z,427.10
2019-05-23T10:34:19.467Z,426.86
2019-05-23T10:35:19.468Z,426.75
2019-05-23T10:36:19.459Z,426.62
2019-05-23T10:37:19.519Z,427.17
2019-05-23T10:38:19.423Z,425.63
2019-05-23T10:39:19.409Z,426.11
2019-05-23T10:40:19.417Z,425.91
2019-05-23T10:41:19.398Z,426.52
2019-05-23T10:42:19.378Z,426.20
2019-05-23T10:43:19.362Z,425.15
2019-05-23T10:44:19.364Z,426.56
2019-05-23T10:45:19.337Z,426.56
2019-05-23T10:46:19.360Z,426.82
2019-05-23T10:47:19.315Z,426.35
2019-05-23T10:48:19.325Z,427.05
2019-05-23T10:49:19.300Z,426.72
2019-05-23T10:50:19.285Z,426.70
2019-05-23T10:51:19.293Z,427.26
2019-05-23T10:52:19.271Z,425.91
2019-05-23T10:53:19.306Z,425.71
2019-05-23T10:54:19.303Z,426.20
2019-05-23T10:55:19.254Z,426.82
2019-05-23T10:56:20.580Z,426.36
2019-05-23T10:57:19.204Z,426.24
2019-05-23T10:58:19.236Z,426.58
2019-05-23T10:59:19.226Z,425.47
2019-05-23T11:00:19.173Z,426.16
2019-05-23T11:01:19.160Z,427.11
2019-05-23T11:02:19.154Z,426.61
2019-05-23T11:03:19.185Z,427.46
2019-05-23T11:04:19.130Z,426.14
2019-05-23T11:05:19.120Z,426.05
2019-05-23T11:06:19.105Z,427.04
2019-05-23T11:07:19.094Z,426.70
2019-05-23T11:08:19.094Z,426.95
2019-05-23T11:09:36.193Z,425.87
2019-05-23T11:10:20.065Z,426.57
2019-05-23T11:11:19.072Z,424.98
2019-05-23T11:12:19.036Z,426.68
2019-05-23T11:13:19.034Z,426.50
2019-05-23T11:14:19.025Z,427.55
2019-05-23T11:15:19.026Z,427.21
2019-05-23T11:16:18.997Z,427.50
2019-05-23T11:17:18.975Z,427.71
2019-05-23T11:18:18.988Z,427.15
2019-05-23T11:19:18.958Z,425.96
2019-05-23T11:20:18.952Z,425.83
2019-05-23T11:21:18.946Z,426.03
2019-05-23T11:22:18.922Z,426.32
2019-05-23T11:23:18.937Z,425.57
2019-05-23T11:24:18.899Z,426.77
2019-05-23T11:25:18.905Z,426.38
2019-05-23T11:26:18.888Z,425.40
2019-05-23T11:27:18.874Z,426.39
2019-05-23T11:28:18.856Z,425.58
2019-05-23T11:29:18.868Z,426.75
2019-05-23T11:30:18.841Z,427.28
2019-05-23T11:31:18.857Z,427.54
2019-05-23T11:32:20.171Z,427.72
2019-05-23T11:33:18.805Z,426.92
2019-05-23T11:34:18.811Z,427.81
2019-05-23T11:35:18.817Z,426.70
2019-05-23T11:36:33.914Z,427.56
2019-05-23T11:37:19.754Z,427.65
2019-05-23T11:38:18.747Z,426.70
2019-05-23T11:39:18.726Z,426.37
2019-05-23T11:40:18.720Z,426.76
2019-05-23T11:41:18.764Z,426.23
2019-05-23T11:42:18.720Z,426.46
2019-05-23T11:43:18.702Z,426.24
2019-05-23T11:44:18.677Z,426.77
2019-05-23T11:45:18.668Z,426.49
2019-05-23T11:46:18.654Z,426.17
2019-05-23T11:47:18.644Z,427.05
2019-05-23T11:48:18.640Z,425.92
2019-05-23T11:49:18.642Z,426.37
2019-05-23T11:50:18.609Z,426.41
2019-05-23T11:51:18.603Z,430.20
2019-05-23T11:52:18.590Z,426.37
2019-05-23T11:53:18.607Z,426.84
2019-05-23T11:54:18.562Z,426.13
2019-05-23T11:55:18.556Z,427.62
2019-05-23T11:56:18.549Z,426.11
2019-05-23T11:57:18.562Z,426.42
2019-05-23T11:58:18.524Z,426.52
2019-05-23T11:59:18.653Z,426.08
2019-05-23T12:00:18.787Z,427.17
2019-05-23T12:01:21.311Z,427.08
2019-05-23T12:02:18.480Z,426.50
2019-05-23T12:03:18.487Z,426.78
2019-05-23T12:04:18.452Z,426.77
2019-05-23T12:05:18.444Z,426.15
2019-05-23T12:06:18.487Z,426.90
2019-05-23T12:07:18.417Z,425.94
2019-05-23T12:08:18.405Z,427.05
2019-05-23T12:09:18.490Z,427.14
2019-05-23T12:10:18.441Z,427.78
2019-05-23T12:11:18.369Z,427.17
2019-05-23T12:12:18.367Z,427.41
2019-05-23T12:13:18.351Z,427.52
2019-05-23T12:14:18.341Z,426.82
2019-05-23T12:15:18.332Z,426.43
2019-05-23T12:16:18.334Z,427.21
2019-05-23T12:17:18.311Z,427.05
2019-05-23T12:18:18.299Z,426.72
2019-05-23T12:19:18.297Z,427.48
2019-05-23T12:20:18.271Z,427.85
2019-05-23T12:21:18.274Z,428.36
2019-05-23T12:22:18.250Z,427.71
2019-05-23T12:23:18.236Z,427.28
2019-05-23T12:24:18.232Z,426.90
2019-05-23T12:25:22.578Z,426.88
2019-05-23T12:26:18.212Z,427.62
2019-05-23T12:27:18.200Z,428.07
2019-05-23T12:28:18.215Z,426.50